Wainwright Airport Wainwright US
ICAO: PAWI
IATA:
Category: Medium
Scheduled Services:

Elevation: 41 ft
TransAlt. 18000 ft.

Airport Communications:
ASOS:132.25
ANCHORAGE CNTR:135.3
CTAF:122.8
FAIRBANKS RDO:122.5

PAWI Zoom In..

Runways:

(A) RW 05 length 4494 ft width 110 ft
---- / hdg 50

(B) RW 23 length 4494 ft width 110 ft
---- / hdg 230

Location; PAWI
Day. 03 / Time. 18.53 Zulu
* Altimeter: 29.75
* Temperature: 01° c. 33.8°f.
* Wind from: 000° Speed 00 kn.
Dewpoint: 00° c.
Visibility: 9 Statute Miles.
Clouds: Overcast 300 ft.

PAWI 031853Z AUTO 00000KT 9SM OVC003 01/00 A2975 RMK SLP075 T00060000 TSNO VIA AUTODIAL

Going to: --> -->


Wind - Calm.

 
 
jpsmedia worldairports.se 2020   terms of use